sensor_id;sensor_type;location;lat;lon;timestamp;P1;durP1;ratioP1;P2;durP2;ratioP2
20703;SDS011;62934;49.420;8.652;2023-07-02T03:55:23;11.27;;;5.90;;
20703;SDS011;62934;49.420;8.652;2023-07-02T03:57:50;13.48;;;6.30;;
20703;SDS011;62934;49.420;8.652;2023-07-02T04:00:15;11.77;;;6.20;;
20703;SDS011;62934;49.420;8.652;2023-07-02T04:02:41;13.27;;;5.85;;
20703;SDS011;62934;49.420;8.652;2023-07-02T04:05:07;11.20;;;6.30;;
20703;SDS011;62934;49.420;8.652;2023-07-02T04:07:32;10.23;;;5.60;;
20703;SDS011;62934;49.420;8.652;2023-07-02T04:09:58;12.27;;;6.18;;
20703;SDS011;62934;49.420;8.652;2023-07-02T04:12:24;8.82;;;5.28;;
20703;SDS011;62934;49.420;8.652;2023-07-02T04:14:50;14.35;;;5.65;;
20703;SDS011;62934;49.420;8.652;2023-07-02T04:17:15;11.00;;;6.00;;
20703;SDS011;62934;49.420;8.652;2023-07-02T04:19:41;11.82;;;5.68;;
20703;SDS011;62934;49.420;8.652;2023-07-02T04:22:07;10.40;;;5.78;;
20703;SDS011;62934;49.420;8.652;2023-07-02T04:24:32;13.02;;;5.80;;
20703;SDS011;62934;49.420;8.652;2023-07-02T04:26:58;10.15;;;5.50;;
20703;SDS011;62934;49.420;8.652;2023-07-02T04:29:25;14.77;;;5.47;;
20703;SDS011;62934;49.420;8.652;2023-07-02T04:31:50;10.93;;;5.97;;
20703;SDS011;62934;49.420;8.652;2023-07-02T04:34:16;9.95;;;5.90;;
20703;SDS011;62934;49.420;8.652;2023-07-02T04:36:42;11.48;;;5.60;;
20703;SDS011;62934;49.420;8.652;2023-07-02T04:39:08;10.32;;;5.65;;
20703;SDS011;62934;49.420;8.652;2023-07-02T04:41:35;10.20;;;5.25;;
20703;SDS011;62934;49.420;8.652;2023-07-02T04:44:01;15.10;;;5.82;;
20703;SDS011;62934;49.420;8.652;2023-07-02T04:46:27;11.32;;;5.40;;
20703;SDS011;62934;49.420;8.652;2023-07-02T04:48:53;9.75;;;5.45;;
20703;SDS011;62934;49.420;8.652;2023-07-02T04:51:20;10.45;;;5.65;;
20703;SDS011;62934;49.420;8.652;2023-07-02T04:53:47;9.02;;;5.13;;
20703;SDS011;62934;49.420;8.652;2023-07-02T04:56:13;10.15;;;5.78;;
20703;SDS011;62934;49.420;8.652;2023-07-02T04:58:38;10.18;;;5.38;;
20703;SDS011;62934;49.420;8.652;2023-07-02T05:01:04;11.80;;;6.03;;
20703;SDS011;62934;49.420;8.652;2023-07-02T05:03:30;10.73;;;5.70;;
20703;SDS011;62934;49.420;8.652;2023-07-02T05:05:55;8.13;;;5.35;;
20703;SDS011;62934;49.420;8.652;2023-07-02T05:08:21;12.40;;;5.88;;
20703;SDS011;62934;49.420;8.652;2023-07-02T05:10:46;13.82;;;5.53;;
20703;SDS011;62934;49.420;8.652;2023-07-02T05:13:12;10.77;;;5.82;;
20703;SDS011;62934;49.420;8.652;2023-07-02T05:15:38;29.52;;;9.07;;
20703;SDS011;62934;49.420;8.652;2023-07-02T05:18:04;20.33;;;7.80;;
20703;SDS011;62934;49.420;8.652;2023-07-02T05:20:31;33.00;;;10.07;;
20703;SDS011;62934;49.420;8.652;2023-07-02T05:22:57;22.92;;;7.50;;
20703;SDS011;62934;49.420;8.652;2023-07-02T05:25:23;21.80;;;8.15;;
20703;SDS011;62934;49.420;8.652;2023-07-02T05:27:48;16.95;;;6.88;;
20703;SDS011;62934;49.420;8.652;2023-07-02T05:30:14;14.75;;;6.78;;
20703;SDS011;62934;49.420;8.652;2023-07-02T05:32:39;17.23;;;7.78;;
20703;SDS011;62934;49.420;8.652;2023-07-02T05:35:05;11.35;;;6.10;;
20703;SDS011;62934;49.420;8.652;2023-07-02T05:37:31;14.80;;;7.40;;
20703;SDS011;62934;49.420;8.652;2023-07-02T05:39:56;14.40;;;6.93;;
20703;SDS011;62934;49.420;8.652;2023-07-02T05:42:22;11.95;;;6.53;;
20703;SDS011;62934;49.420;8.652;2023-07-02T05:44:48;13.00;;;6.90;;
20703;SDS011;62934;49.420;8.652;2023-07-02T05:47:13;12.15;;;7.20;;
20703;SDS011;62934;49.420;8.652;2023-07-02T05:49:40;12.23;;;7.10;;
20703;SDS011;62934;49.420;8.652;2023-07-02T05:52:07;12.82;;;6.60;;
20703;SDS011;62934;49.420;8.652;2023-07-02T05:54:33;9.90;;;6.70;;
20703;SDS011;62934;49.420;8.652;2023-07-02T05:56:58;12.45;;;6.60;;
20703;SDS011;62934;49.420;8.652;2023-07-02T05:59:24;16.15;;;7.20;;
20703;SDS011;62934;49.420;8.652;2023-07-02T06:01:50;12.65;;;6.80;;
20703;SDS011;62934;49.420;8.652;2023-07-02T06:04:15;13.73;;;6.50;;
20703;SDS011;62934;49.420;8.652;2023-07-02T06:06:41;15.25;;;6.60;;
20703;SDS011;62934;49.420;8.652;2023-07-02T06:09:07;13.52;;;7.30;;
20703;SDS011;62934;49.420;8.652;2023-07-02T06:11:32;14.95;;;7.25;;
20703;SDS011;62934;49.420;8.652;2023-07-02T06:13:58;12.43;;;7.40;;
20703;SDS011;62934;49.420;8.652;2023-07-02T06:16:24;13.30;;;7.28;;
20703;SDS011;62934;49.420;8.652;2023-07-02T06:18:50;14.38;;;8.32;;
20703;SDS011;62934;49.420;8.652;2023-07-02T06:21:16;17.30;;;8.20;;
20703;SDS011;62934;49.420;8.652;2023-07-02T06:23:44;22.13;;;13.05;;
20703;SDS011;62934;49.420;8.652;2023-07-02T06:26:11;14.27;;;8.80;;
20703;SDS011;62934;49.420;8.652;2023-07-02T06:28:38;14.90;;;9.13;;
20703;SDS011;62934;49.420;8.652;2023-07-02T06:31:04;18.13;;;9.52;;
20703;SDS011;62934;49.420;8.652;2023-07-02T06:33:29;14.82;;;9.15;;
20703;SDS011;62934;49.420;8.652;2023-07-02T06:35:55;17.65;;;9.57;;
20703;SDS011;62934;49.420;8.652;2023-07-02T06:38:20;18.08;;;9.68;;
20703;SDS011;62934;49.420;8.652;2023-07-02T06:40:46;15.50;;;10.18;;
20703;SDS011;62934;49.420;8.652;2023-07-02T06:43:11;17.45;;;9.82;;
20703;SDS011;62934;49.420;8.652;2023-07-02T06:45:37;17.90;;;10.10;;
20703;SDS011;62934;49.420;8.652;2023-07-02T06:48:03;16.95;;;10.40;;
20703;SDS011;62934;49.420;8.652;2023-07-02T06:50:28;17.35;;;9.57;;
20703;SDS011;62934;49.420;8.652;2023-07-02T06:52:54;14.20;;;8.77;;
20703;SDS011;62934;49.420;8.652;2023-07-02T06:55:20;18.70;;;9.73;;
20703;SDS011;62934;49.420;8.652;2023-07-02T06:57:46;19.23;;;10.10;;
20703;SDS011;62934;49.420;8.652;2023-07-02T07:00:12;19.50;;;11.18;;
20703;SDS011;62934;49.420;8.652;2023-07-02T07:02:38;17.58;;;10.10;;
20703;SDS011;62934;49.420;8.652;2023-07-02T07:05:04;17.23;;;10.90;;
20703;SDS011;62934;49.420;8.652;2023-07-02T07:07:30;18.52;;;10.82;;
20703;SDS011;62934;49.420;8.652;2023-07-02T07:09:55;19.92;;;11.50;;
20703;SDS011;62934;49.420;8.652;2023-07-02T07:12:21;16.33;;;10.30;;
20703;SDS011;62934;49.420;8.652;2023-07-02T07:14:47;16.67;;;10.23;;
20703;SDS011;62934;49.420;8.652;2023-07-02T07:17:13;17.67;;;10.35;;
20703;SDS011;62934;49.420;8.652;2023-07-02T07:19:38;18.40;;;10.23;;
20703;SDS011;62934;49.420;8.652;2023-07-02T07:22:04;17.40;;;10.38;;
20703;SDS011;62934;49.420;8.652;2023-07-02T07:24:29;21.05;;;10.93;;
20703;SDS011;62934;49.420;8.652;2023-07-02T07:26:55;18.67;;;10.30;;
20703;SDS011;62934;49.420;8.652;2023-07-02T07:29:21;18.42;;;11.32;;
20703;SDS011;62934;49.420;8.652;2023-07-02T07:31:47;20.48;;;11.80;;
20703;SDS011;62934;49.420;8.652;2023-07-02T07:34:12;17.13;;;10.93;;
20703;SDS011;62934;49.420;8.652;2023-07-02T07:36:38;21.92;;;12.20;;
20703;SDS011;62934;49.420;8.652;2023-07-02T07:39:04;19.05;;;12.00;;
20703;SDS011;62934;49.420;8.652;2023-07-02T07:41:29;24.25;;;13.60;;
20703;SDS011;62934;49.420;8.652;2023-07-02T07:43:55;21.70;;;12.98;;
20703;SDS011;62934;49.420;8.652;2023-07-02T07:46:21;21.92;;;12.35;;
20703;SDS011;62934;49.420;8.652;2023-07-02T07:48:46;23.58;;;12.73;;
20703;SDS011;62934;49.420;8.652;2023-07-02T07:51:12;22.77;;;13.07;;
20703;SDS011;62934;49.420;8.652;2023-07-02T07:53:38;23.38;;;12.93;;
20703;SDS011;62934;49.420;8.652;2023-07-02T07:56:04;23.38;;;12.88;;
20703;SDS011;62934;49.420;8.652;2023-07-02T07:58:30;24.73;;;12.95;;
20703;SDS011;62934;49.420;8.652;2023-07-02T08:00:57;22.40;;;13.02;;
20703;SDS011;62934;49.420;8.652;2023-07-02T08:03:22;25.05;;;13.95;;
20703;SDS011;62934;49.420;8.652;2023-07-02T08:05:48;27.13;;;15.45;;
20703;SDS011;62934;49.420;8.652;2023-07-02T08:08:14;25.92;;;14.93;;
20703;SDS011;62934;49.420;8.652;2023-07-02T08:10:39;23.58;;;13.73;;
20703;SDS011;62934;49.420;8.652;2023-07-02T08:13:05;26.33;;;15.48;;
20703;SDS011;62934;49.420;8.652;2023-07-02T08:15:31;25.63;;;14.13;;
20703;SDS011;62934;49.420;8.652;2023-07-02T08:17:56;27.80;;;15.38;;
20703;SDS011;62934;49.420;8.652;2023-07-02T08:20:23;24.85;;;12.93;;
20703;SDS011;62934;49.420;8.652;2023-07-02T08:22:49;21.40;;;13.55;;
20703;SDS011;62934;49.420;8.652;2023-07-02T08:25:16;28.17;;;14.63;;
20703;SDS011;62934;49.420;8.652;2023-07-02T08:27:46;24.33;;;15.30;;
20703;SDS011;62934;49.420;8.652;2023-07-02T08:30:12;27.33;;;15.02;;
20703;SDS011;62934;49.420;8.652;2023-07-02T08:32:38;28.45;;;15.35;;
20703;SDS011;62934;49.420;8.652;2023-07-02T08:35:04;27.90;;;14.80;;
20703;SDS011;62934;49.420;8.652;2023-07-02T08:37:30;26.45;;;15.18;;
20703;SDS011;62934;49.420;8.652;2023-07-02T08:39:56;26.60;;;15.13;;
20703;SDS011;62934;49.420;8.652;2023-07-02T08:42:21;27.60;;;15.40;;
20703;SDS011;62934;49.420;8.652;2023-07-02T08:44:47;27.70;;;15.63;;
20703;SDS011;62934;49.420;8.652;2023-07-02T08:47:13;27.98;;;15.95;;
20703;SDS011;62934;49.420;8.652;2023-07-02T08:49:40;25.45;;;15.80;;
20703;SDS011;62934;49.420;8.652;2023-07-02T08:52:07;25.63;;;15.05;;
20703;SDS011;62934;49.420;8.652;2023-07-02T08:54:33;27.20;;;15.65;;
20703;SDS011;62934;49.420;8.652;2023-07-02T08:56:58;26.85;;;15.68;;
20703;SDS011;62934;49.420;8.652;2023-07-02T08:59:26;26.58;;;14.90;;
20703;SDS011;62934;49.420;8.652;2023-07-02T09:01:52;28.33;;;15.00;;
20703;SDS011;62934;49.420;8.652;2023-07-02T09:04:24;23.10;;;14.65;;
20703;SDS011;62934;49.420;8.652;2023-07-02T09:07:04;24.15;;;15.45;;
20703;SDS011;62934;49.420;8.652;2023-07-02T09:09:30;25.27;;;15.07;;
20703;SDS011;62934;49.420;8.652;2023-07-02T09:11:55;26.40;;;15.65;;
20703;SDS011;62934;49.420;8.652;2023-07-02T09:14:24;24.63;;;14.70;;
20703;SDS011;62934;49.420;8.652;2023-07-02T09:17:12;23.67;;;14.35;;
20703;SDS011;62934;49.420;8.652;2023-07-02T09:19:49;25.60;;;15.27;;
20703;SDS011;62934;49.420;8.652;2023-07-02T09:22:16;26.10;;;15.57;;
20703;SDS011;62934;49.420;8.652;2023-07-02T09:24:41;23.27;;;15.13;;
20703;SDS011;62934;49.420;8.652;2023-07-02T09:27:15;24.63;;;14.55;;
20703;SDS011;62934;49.420;8.652;2023-07-02T09:29:41;25.38;;;14.40;;
20703;SDS011;62934;49.420;8.652;2023-07-02T09:32:07;24.08;;;14.70;;
20703;SDS011;62934;49.420;8.652;2023-07-02T09:34:33;25.88;;;14.50;;
20703;SDS011;62934;49.420;8.652;2023-07-02T09:37:00;23.58;;;14.45;;
20703;SDS011;62934;49.420;8.652;2023-07-02T09:39:28;23.83;;;14.45;;
20703;SDS011;62934;49.420;8.652;2023-07-02T09:41:59;19.98;;;13.70;;
20703;SDS011;62934;49.420;8.652;2023-07-02T09:44:27;20.58;;;12.93;;
20703;SDS011;62934;49.420;8.652;2023-07-02T09:49:25;21.20;;;14.40;;
20703;SDS011;62934;49.420;8.652;2023-07-02T09:51:52;23.55;;;14.48;;
20703;SDS011;62934;49.420;8.652;2023-07-02T09:54:18;25.23;;;15.80;;
20703;SDS011;62934;49.420;8.652;2023-07-02T09:56:46;23.38;;;14.43;;
20703;SDS011;62934;49.420;8.652;2023-07-02T09:59:12;24.73;;;15.32;;
20703;SDS011;62934;49.420;8.652;2023-07-02T10:01:39;24.75;;;15.68;;
20703;SDS011;62934;49.420;8.652;2023-07-02T10:04:14;23.52;;;13.80;;
20703;SDS011;62934;49.420;8.652;2023-07-02T10:09:12;24.55;;;15.82;;
20703;SDS011;62934;49.420;8.652;2023-07-02T10:11:37;24.88;;;15.80;;
20703;SDS011;62934;49.420;8.652;2023-07-02T10:14:03;23.40;;;14.13;;
20703;SDS011;62934;49.420;8.652;2023-07-02T10:16:28;22.33;;;14.68;;
20703;SDS011;62934;49.420;8.652;2023-07-02T10:19:07;23.55;;;14.55;;
20703;SDS011;62934;49.420;8.652;2023-07-02T10:21:34;22.73;;;14.73;;
20703;SDS011;62934;49.420;8.652;2023-07-02T10:24:10;25.23;;;14.88;;
20703;SDS011;62934;49.420;8.652;2023-07-02T10:26:36;29.27;;;15.75;;
20703;SDS011;62934;49.420;8.652;2023-07-02T10:29:02;27.02;;;16.20;;
20703;SDS011;62934;49.420;8.652;2023-07-02T10:31:27;26.52;;;15.68;;
20703;SDS011;62934;49.420;8.652;2023-07-02T10:33:53;26.88;;;15.85;;
20703;SDS011;62934;49.420;8.652;2023-07-02T10:36:22;26.38;;;15.27;;
20703;SDS011;62934;49.420;8.652;2023-07-02T10:38:49;30.35;;;16.80;;
20703;SDS011;62934;49.420;8.652;2023-07-02T10:41:28;24.75;;;15.57;;
20703;SDS011;62934;49.420;8.652;2023-07-02T10:44:04;30.00;;;16.85;;
20703;SDS011;62934;49.420;8.652;2023-07-02T10:46:34;27.77;;;15.98;;
20703;SDS011;62934;49.420;8.652;2023-07-02T10:49:08;24.73;;;16.02;;
20703;SDS011;62934;49.420;8.652;2023-07-02T10:51:34;28.75;;;16.92;;
20703;SDS011;62934;49.420;8.652;2023-07-02T10:54:00;26.90;;;17.23;;
20703;SDS011;62934;49.420;8.652;2023-07-02T10:56:27;25.40;;;17.30;;
20703;SDS011;62934;49.420;8.652;2023-07-02T10:58:53;27.52;;;16.52;;
20703;SDS011;62934;49.420;8.652;2023-07-02T11:04:02;27.63;;;17.42;;
20703;SDS011;62934;49.420;8.652;2023-07-02T11:06:31;26.67;;;17.15;;
20703;SDS011;62934;49.420;8.652;2023-07-02T11:08:58;38.33;;;25.92;;
20703;SDS011;62934;49.420;8.652;2023-07-02T11:11:25;26.40;;;16.73;;
20703;SDS011;62934;49.420;8.652;2023-07-02T11:13:52;25.15;;;15.93;;
20703;SDS011;62934;49.420;8.652;2023-07-02T11:19:05;27.15;;;15.75;;
20703;SDS011;62934;49.420;8.652;2023-07-02T11:21:36;35.55;;;16.95;;
20703;SDS011;62934;49.420;8.652;2023-07-02T11:24:02;25.17;;;16.35;;
20703;SDS011;62934;49.420;8.652;2023-07-02T11:26:38;25.67;;;15.75;;
20703;SDS011;62934;49.420;8.652;2023-07-02T11:29:11;29.45;;;16.92;;
20703;SDS011;62934;49.420;8.652;2023-07-02T11:31:37;26.45;;;16.45;;
20703;SDS011;62934;49.420;8.652;2023-07-02T11:34:13;30.90;;;19.02;;
20703;SDS011;62934;49.420;8.652;2023-07-02T11:36:39;27.52;;;16.08;;
20703;SDS011;62934;49.420;8.652;2023-07-02T11:39:05;30.00;;;16.85;;
20703;SDS011;62934;49.420;8.652;2023-07-02T11:41:41;27.05;;;18.25;;
20703;SDS011;62934;49.420;8.652;2023-07-02T11:44:08;29.35;;;18.52;;
20703;SDS011;62934;49.420;8.652;2023-07-02T11:46:34;28.08;;;16.50;;
20703;SDS011;62934;49.420;8.652;2023-07-02T11:49:00;26.23;;;16.17;;
20703;SDS011;62934;49.420;8.652;2023-07-02T11:51:26;27.58;;;16.83;;
20703;SDS011;62934;49.420;8.652;2023-07-02T11:53:52;26.42;;;16.20;;
20703;SDS011;62934;49.420;8.652;2023-07-02T11:56:18;27.25;;;18.48;;
20703;SDS011;62934;49.420;8.652;2023-07-02T11:58:43;28.70;;;16.30;;
20703;SDS011;62934;49.420;8.652;2023-07-02T12:01:09;25.08;;;16.30;;
20703;SDS011;62934;49.420;8.652;2023-07-02T12:03:34;27.45;;;16.00;;
20703;SDS011;62934;49.420;8.652;2023-07-02T12:06:00;26.25;;;16.52;;
20703;SDS011;62934;49.420;8.652;2023-07-02T12:08:26;31.98;;;19.38;;
20703;SDS011;62934;49.420;8.652;2023-07-02T12:10:51;25.77;;;16.83;;
20703;SDS011;62934;49.420;8.652;2023-07-02T15:17:34;24.85;;;16.50;;
20703;SDS011;62934;49.420;8.652;2023-07-02T15:19:59;27.58;;;17.52;;
20703;SDS011;62934;49.420;8.652;2023-07-02T15:22:25;25.58;;;16.67;;
20703;SDS011;62934;49.420;8.652;2023-07-02T15:24:51;23.55;;;16.23;;
20703;SDS011;62934;49.420;8.652;2023-07-02T15:27:16;26.90;;;16.95;;
20703;SDS011;62934;49.420;8.652;2023-07-02T15:29:42;26.40;;;16.80;;
20703;SDS011;62934;49.420;8.652;2023-07-02T15:32:07;25.73;;;16.30;;
20703;SDS011;62934;49.420;8.652;2023-07-02T15:34:33;23.77;;;15.93;;
20703;SDS011;62934;49.420;8.652;2023-07-02T15:36:59;25.50;;;16.30;;
20703;SDS011;62934;49.420;8.652;2023-07-02T15:39:24;26.83;;;16.95;;
20703;SDS011;62934;49.420;8.652;2023-07-02T15:41:57;26.20;;;16.25;;
20703;SDS011;62934;49.420;8.652;2023-07-02T15:44:22;28.60;;;16.63;;
20703;SDS011;62934;49.420;8.652;2023-07-02T15:46:48;28.40;;;16.38;;
20703;SDS011;62934;49.420;8.652;2023-07-02T15:49:14;25.20;;;16.17;;
20703;SDS011;62934;49.420;8.652;2023-07-02T15:51:39;27.27;;;16.88;;
20703;SDS011;62934;49.420;8.652;2023-07-02T15:54:07;30.20;;;20.58;;
20703;SDS011;62934;49.420;8.652;2023-07-02T15:56:33;27.38;;;17.95;;
20703;SDS011;62934;49.420;8.652;2023-07-02T15:59:00;26.63;;;16.65;;
20703;SDS011;62934;49.420;8.652;2023-07-02T16:01:26;26.27;;;17.05;;
20703;SDS011;62934;49.420;8.652;2023-07-02T16:03:53;25.88;;;16.55;;
20703;SDS011;62934;49.420;8.652;2023-07-02T16:06:19;24.52;;;16.63;;
20703;SDS011;62934;49.420;8.652;2023-07-02T16:08:44;25.25;;;16.20;;
20703;SDS011;62934;49.420;8.652;2023-07-02T16:11:10;26.40;;;16.73;;
20703;SDS011;62934;49.420;8.652;2023-07-02T16:13:38;27.48;;;17.33;;
20703;SDS011;62934;49.420;8.652;2023-07-02T16:16:06;26.85;;;16.67;;
20703;SDS011;62934;49.420;8.652;2023-07-02T16:18:32;24.63;;;16.25;;
20703;SDS011;62934;49.420;8.652;2023-07-02T16:20:59;25.58;;;17.65;;
20703;SDS011;62934;49.420;8.652;2023-07-02T16:23:26;28.05;;;17.08;;
20703;SDS011;62934;49.420;8.652;2023-07-02T16:25:54;27.20;;;15.45;;
20703;SDS011;62934;49.420;8.652;2023-07-02T16:28:26;24.27;;;16.10;;
20703;SDS011;62934;49.420;8.652;2023-07-02T16:30:52;29.77;;;18.75;;
20703;SDS011;62934;49.420;8.652;2023-07-02T16:33:18;30.55;;;18.10;;
20703;SDS011;62934;49.420;8.652;2023-07-02T16:35:47;29.60;;;17.92;;
20703;SDS011;62934;49.420;8.652;2023-07-02T16:38:13;25.27;;;15.70;;
20703;SDS011;62934;49.420;8.652;2023-07-02T16:40:39;27.75;;;17.42;;
20703;SDS011;62934;49.420;8.652;2023-07-02T16:43:05;25.13;;;17.20;;
20703;SDS011;62934;49.420;8.652;2023-07-02T16:45:31;25.58;;;16.48;;
20703;SDS011;62934;49.420;8.652;2023-07-02T16:47:57;29.75;;;17.00;;
20703;SDS011;62934;49.420;8.652;2023-07-02T16:50:23;27.35;;;17.92;;
20703;SDS011;62934;49.420;8.652;2023-07-02T16:52:49;29.45;;;18.27;;
20703;SDS011;62934;49.420;8.652;2023-07-02T16:55:15;29.08;;;19.73;;
20703;SDS011;62934;49.420;8.652;2023-07-02T16:57:40;37.88;;;23.23;;
20703;SDS011;62934;49.420;8.652;2023-07-02T17:00:06;28.30;;;17.75;;
20703;SDS011;62934;49.420;8.652;2023-07-02T17:02:33;26.10;;;17.63;;
20703;SDS011;62934;49.420;8.652;2023-07-02T17:05:01;27.95;;;17.17;;
20703;SDS011;62934;49.420;8.652;2023-07-02T17:07:26;34.88;;;20.33;;
20703;SDS011;62934;49.420;8.652;2023-07-02T17:09:52;34.55;;;21.02;;
20703;SDS011;62934;49.420;8.652;2023-07-02T17:12:18;28.95;;;17.33;;
20703;SDS011;62934;49.420;8.652;2023-07-02T17:14:45;26.20;;;16.10;;
20703;SDS011;62934;49.420;8.652;2023-07-02T17:17:25;27.25;;;17.65;;
20703;SDS011;62934;49.420;8.652;2023-07-02T17:19:53;24.00;;;15.52;;
20703;SDS011;62934;49.420;8.652;2023-07-02T17:22:21;28.60;;;17.27;;
20703;SDS011;62934;49.420;8.652;2023-07-02T17:24:49;26.42;;;16.58;;
20703;SDS011;62934;49.420;8.652;2023-07-02T17:27:18;26.50;;;15.52;;
20703;SDS011;62934;49.420;8.652;2023-07-02T17:29:52;29.55;;;16.00;;
20703;SDS011;62934;49.420;8.652;2023-07-02T17:32:29;26.77;;;15.68;;
20703;SDS011;62934;49.420;8.652;2023-07-02T17:34:55;25.73;;;15.88;;
20703;SDS011;62934;49.420;8.652;2023-07-02T17:37:22;38.95;;;18.73;;
20703;SDS011;62934;49.420;8.652;2023-07-02T17:39:48;28.20;;;16.67;;
20703;SDS011;62934;49.420;8.652;2023-07-02T17:42:14;34.53;;;16.83;;
20703;SDS011;62934;49.420;8.652;2023-07-02T17:44:42;28.27;;;15.93;;
20703;SDS011;62934;49.420;8.652;2023-07-02T17:47:10;28.92;;;15.85;;
20703;SDS011;62934;49.420;8.652;2023-07-02T17:49:38;25.30;;;15.35;;
20703;SDS011;62934;49.420;8.652;2023-07-02T17:52:06;26.02;;;14.95;;
20703;SDS011;62934;49.420;8.652;2023-07-02T17:54:35;26.83;;;15.98;;
20703;SDS011;62934;49.420;8.652;2023-07-02T17:57:03;27.95;;;16.00;;
20703;SDS011;62934;49.420;8.652;2023-07-02T17:59:30;26.90;;;15.10;;
20703;SDS011;62934;49.420;8.652;2023-07-02T18:01:56;27.00;;;15.77;;
20703;SDS011;62934;49.420;8.652;2023-07-02T18:04:22;24.67;;;15.40;;
20703;SDS011;62934;49.420;8.652;2023-07-02T18:06:51;24.25;;;15.05;;
20703;SDS011;62934;49.420;8.652;2023-07-02T18:09:22;22.88;;;15.00;;
20703;SDS011;62934;49.420;8.652;2023-07-02T18:11:48;25.95;;;14.95;;
20703;SDS011;62934;49.420;8.652;2023-07-02T18:14:16;25.42;;;14.95;;
20703;SDS011;62934;49.420;8.652;2023-07-02T18:16:42;24.55;;;14.43;;
20703;SDS011;62934;49.420;8.652;2023-07-02T18:19:08;26.50;;;15.40;;
20703;SDS011;62934;49.420;8.652;2023-07-02T18:21:34;22.15;;;15.15;;
20703;SDS011;62934;49.420;8.652;2023-07-02T18:24:00;27.08;;;15.38;;
20703;SDS011;62934;49.420;8.652;2023-07-02T18:26:26;25.35;;;14.43;;
20703;SDS011;62934;49.420;8.652;2023-07-02T18:28:52;24.33;;;14.68;;
20703;SDS011;62934;49.420;8.652;2023-07-02T18:31:18;29.83;;;15.52;;
20703;SDS011;62934;49.420;8.652;2023-07-02T18:33:44;30.45;;;15.32;;
20703;SDS011;62934;49.420;8.652;2023-07-02T18:36:10;27.85;;;15.82;;
20703;SDS011;62934;49.420;8.652;2023-07-02T18:38:37;31.75;;;18.02;;
20703;SDS011;62934;49.420;8.652;2023-07-02T18:41:07;27.60;;;15.43;;
20703;SDS011;62934;49.420;8.652;2023-07-02T18:43:35;36.97;;;21.73;;
20703;SDS011;62934;49.420;8.652;2023-07-02T18:46:02;23.40;;;14.00;;
20703;SDS011;62934;49.420;8.652;2023-07-02T18:48:28;23.40;;;14.05;;
20703;SDS011;62934;49.420;8.652;2023-07-02T18:50:53;23.65;;;13.73;;
20703;SDS011;62934;49.420;8.652;2023-07-02T18:53:19;23.13;;;13.45;;
20703;SDS011;62934;49.420;8.652;2023-07-02T18:55:56;25.27;;;13.98;;
20703;SDS011;62934;49.420;8.652;2023-07-02T18:58:26;24.70;;;13.55;;
20703;SDS011;62934;49.420;8.652;2023-07-02T19:00:53;24.83;;;13.20;;
20703;SDS011;62934;49.420;8.652;2023-07-02T19:03:20;23.50;;;13.30;;
20703;SDS011;62934;49.420;8.652;2023-07-02T19:05:47;22.77;;;13.05;;
20703;SDS011;62934;49.420;8.652;2023-07-02T19:08:15;25.20;;;14.02;;
20703;SDS011;62934;49.420;8.652;2023-07-02T19:10:42;20.58;;;12.68;;
20703;SDS011;62934;49.420;8.652;2023-07-02T19:13:09;25.83;;;12.98;;
20703;SDS011;62934;49.420;8.652;2023-07-02T19:15:36;23.73;;;12.88;;
20703;SDS011;62934;49.420;8.652;2023-07-02T19:18:02;23.42;;;13.13;;
20703;SDS011;62934;49.420;8.652;2023-07-02T19:20:33;23.80;;;13.27;;
20703;SDS011;62934;49.420;8.652;2023-07-02T19:22:59;23.52;;;13.30;;
20703;SDS011;62934;49.420;8.652;2023-07-02T19:25:26;25.00;;;13.40;;
20703;SDS011;62934;49.420;8.652;2023-07-02T19:27:51;22.77;;;13.05;;
20703;SDS011;62934;49.420;8.652;2023-07-02T19:30:18;23.58;;;13.43;;
20703;SDS011;62934;49.420;8.652;2023-07-02T19:32:44;24.90;;;12.52;;
20703;SDS011;62934;49.420;8.652;2023-07-02T19:35:11;23.05;;;13.23;;
20703;SDS011;62934;49.420;8.652;2023-07-02T19:37:37;22.88;;;13.50;;
20703;SDS011;62934;49.420;8.652;2023-07-02T19:40:04;20.45;;;12.10;;
20703;SDS011;62934;49.420;8.652;2023-07-02T19:42:31;23.65;;;14.10;;
20703;SDS011;62934;49.420;8.652;2023-07-02T19:44:58;23.88;;;12.40;;
20703;SDS011;62934;49.420;8.652;2023-07-02T19:47:25;21.52;;;13.13;;
20703;SDS011;62934;49.420;8.652;2023-07-02T19:49:53;26.17;;;13.60;;
20703;SDS011;62934;49.420;8.652;2023-07-02T19:52:19;26.75;;;13.00;;
20703;SDS011;62934;49.420;8.652;2023-07-02T19:54:46;22.95;;;12.75;;
20703;SDS011;62934;49.420;8.652;2023-07-02T19:57:13;25.52;;;12.35;;
20703;SDS011;62934;49.420;8.652;2023-07-02T19:59:49;24.45;;;12.88;;
20703;SDS011;62934;49.420;8.652;2023-07-02T20:02:16;21.65;;;12.95;;
20703;SDS011;62934;49.420;8.652;2023-07-02T20:04:49;23.90;;;13.18;;
20703;SDS011;62934;49.420;8.652;2023-07-02T20:07:24;25.27;;;12.73;;
20703;SDS011;62934;49.420;8.652;2023-07-02T20:09:53;20.40;;;12.15;;
20703;SDS011;62934;49.420;8.652;2023-07-02T20:12:26;22.30;;;12.10;;
20703;SDS011;62934;49.420;8.652;2023-07-02T20:14:58;23.80;;;12.65;;
20703;SDS011;62934;49.420;8.652;2023-07-02T20:17:26;22.02;;;12.80;;
20703;SDS011;62934;49.420;8.652;2023-07-02T20:19:53;23.58;;;12.70;;
20703;SDS011;62934;49.420;8.652;2023-07-02T20:22:20;27.02;;;13.50;;
20703;SDS011;62934;49.420;8.652;2023-07-02T20:24:47;20.77;;;12.02;;
20703;SDS011;62934;49.420;8.652;2023-07-02T20:27:14;22.55;;;11.98;;
20703;SDS011;62934;49.420;8.652;2023-07-02T20:29:44;24.58;;;13.32;;
20703;SDS011;62934;49.420;8.652;2023-07-02T20:32:10;21.13;;;11.40;;
20703;SDS011;62934;49.420;8.652;2023-07-02T20:34:36;26.35;;;12.60;;
20703;SDS011;62934;49.420;8.652;2023-07-02T20:37:02;25.90;;;12.48;;
20703;SDS011;62934;49.420;8.652;2023-07-02T20:39:28;25.85;;;11.63;;
20703;SDS011;62934;49.420;8.652;2023-07-02T20:41:54;21.80;;;12.27;;
20703;SDS011;62934;49.420;8.652;2023-07-02T20:44:22;25.02;;;12.30;;
20703;SDS011;62934;49.420;8.652;2023-07-02T20:46:48;23.67;;;11.90;;
20703;SDS011;62934;49.420;8.652;2023-07-02T20:49:14;26.85;;;12.88;;
20703;SDS011;62934;49.420;8.652;2023-07-02T20:51:42;25.95;;;12.55;;
20703;SDS011;62934;49.420;8.652;2023-07-02T20:54:09;41.15;;;13.07;;
20703;SDS011;62934;49.420;8.652;2023-07-02T20:56:39;44.95;;;13.48;;
20703;SDS011;62934;49.420;8.652;2023-07-02T20:59:05;29.50;;;12.70;;
20703;SDS011;62934;49.420;8.652;2023-07-02T21:01:32;37.83;;;13.38;;
20703;SDS011;62934;49.420;8.652;2023-07-02T21:03:58;21.50;;;11.57;;
20703;SDS011;62934;49.420;8.652;2023-07-02T21:06:26;23.40;;;11.85;;
20703;SDS011;62934;49.420;8.652;2023-07-02T21:08:52;24.60;;;11.55;;
20703;SDS011;62934;49.420;8.652;2023-07-02T21:11:17;22.10;;;11.82;;
20703;SDS011;62934;49.420;8.652;2023-07-02T21:13:43;22.83;;;11.73;;
20703;SDS011;62934;49.420;8.652;2023-07-02T21:16:09;22.30;;;11.98;;
20703;SDS011;62934;49.420;8.652;2023-07-02T21:18:34;24.85;;;12.48;;
20703;SDS011;62934;49.420;8.652;2023-07-02T21:21:00;26.63;;;12.10;;
20703;SDS011;62934;49.420;8.652;2023-07-02T21:23:26;36.53;;;20.67;;
20703;SDS011;62934;49.420;8.652;2023-07-02T21:25:56;25.33;;;13.63;;
20703;SDS011;62934;49.420;8.652;2023-07-02T21:28:23;23.75;;;12.10;;
20703;SDS011;62934;49.420;8.652;2023-07-02T21:30:48;22.83;;;11.93;;